createdAt,value
2023-03-29T00:03:54.364Z,-3.13
2023-03-29T00:08:57.694Z,-3.20
2023-03-29T00:14:03.378Z,-3.34
2023-03-29T00:19:40.559Z,-3.54
2023-03-29T00:24:43.613Z,-3.66
2023-03-29T00:29:54.483Z,-3.71
2023-03-29T00:34:58.685Z,-3.65
2023-03-29T00:40:17.661Z,-3.64
2023-03-29T00:45:27.010Z,-3.64
2023-03-29T00:50:39.479Z,-3.68
2023-03-29T00:56:27.842Z,-3.69
2023-03-29T01:01:42.731Z,-3.79
2023-03-29T01:07:13.840Z,-3.82
2023-03-29T01:12:24.673Z,-3.80
2023-03-29T01:17:31.805Z,-3.72
2023-03-29T01:23:17.569Z,-3.66
2023-03-29T01:28:33.645Z,-3.55
2023-03-29T01:33:49.565Z,-3.50
2023-03-29T01:39:03.601Z,-3.53
2023-03-29T01:44:37.475Z,-3.54
2023-03-29T01:50:08.562Z,-3.54
2023-03-29T01:55:38.631Z,-3.68
2023-03-29T02:00:43.900Z,-3.85
2023-03-29T02:05:47.373Z,-3.92
2023-03-29T02:10:56.642Z,-3.94
2023-03-29T02:16:03.302Z,-4.00
2023-03-29T02:21:25.388Z,-3.97
2023-03-29T02:26:29.474Z,-3.90
2023-03-29T02:31:53.156Z,-3.85
2023-03-29T02:37:11.824Z,-3.81
2023-03-29T02:42:21.372Z,-3.73
2023-03-29T02:47:47.447Z,-3.75
2023-03-29T02:53:06.146Z,-3.76
2023-03-29T02:58:13.002Z,-3.76
2023-03-29T03:03:19.051Z,-3.76
2023-03-29T03:08:22.355Z,-3.78
2023-03-29T03:13:25.760Z,-3.72
2023-03-29T03:18:31.342Z,-3.71
2023-03-29T03:23:34.707Z,-3.71
2023-03-29T03:28:39.184Z,-3.73
2023-03-29T03:33:42.215Z,-3.82
2023-03-29T03:38:46.418Z,-3.78
2023-03-29T03:43:49.715Z,-3.74
2023-03-29T03:48:52.788Z,-3.74
2023-03-29T03:53:55.936Z,-3.75
2023-03-29T03:58:59.046Z,-3.73
2023-03-29T04:04:05.086Z,-3.72
2023-03-29T04:09:11.637Z,-3.70
2023-03-29T04:14:15.359Z,-3.70
2023-03-29T04:19:18.779Z,-3.64
2023-03-29T04:24:24.711Z,-3.59
2023-03-29T04:29:28.709Z,-3.49
2023-03-29T04:34:32.220Z,-3.44
2023-03-29T04:39:35.431Z,-3.31
2023-03-29T04:44:47.811Z,-2.82
2023-03-29T04:49:50.925Z,-1.95
2023-03-29T04:55:06.311Z,-1.25
2023-03-29T05:00:14.644Z,-0.78
2023-03-29T05:05:17.810Z,-0.29
2023-03-29T05:10:21.207Z,0.36
2023-03-29T05:15:24.390Z,0.92
2023-03-29T05:20:28.644Z,1.29
2023-03-29T05:25:36.999Z,1.72
2023-03-29T05:30:47.994Z,2.03
2023-03-29T05:36:13.142Z,2.13
2023-03-29T05:41:18.199Z,2.35
2023-03-29T05:46:29.314Z,2.36
2023-03-29T05:51:45.700Z,2.36
2023-03-29T05:56:48.723Z,2.09
2023-03-29T06:01:55.227Z,2.14
2023-03-29T06:07:04.194Z,2.30
2023-03-29T06:12:10.043Z,2.57
2023-03-29T06:17:13.848Z,2.58
2023-03-29T06:22:17.278Z,2.65
2023-03-29T06:27:20.746Z,2.78
2023-03-29T06:32:23.950Z,2.82
2023-03-29T06:37:27.817Z,2.63
2023-03-29T06:42:33.890Z,2.98
2023-03-29T06:47:37.196Z,3.20
2023-03-29T06:52:40.410Z,3.55
2023-03-29T06:57:51.701Z,3.87
2023-03-29T07:03:00.881Z,3.92
2023-03-29T07:08:06.898Z,3.95
2023-03-29T07:13:15.677Z,4.50
2023-03-29T07:18:32.037Z,5.00
2023-03-29T07:23:38.900Z,5.43
2023-03-29T07:28:43.229Z,5.91
2023-03-29T07:33:47.779Z,6.53
2023-03-29T07:38:51.017Z,6.98
2023-03-29T07:43:57.178Z,7.20
2023-03-29T07:49:12.533Z,7.09
2023-03-29T07:54:15.912Z,7.34
2023-03-29T07:59:19.082Z,7.62
2023-03-29T08:04:26.776Z,7.95
2023-03-29T08:09:30.499Z,8.29
2023-03-29T08:14:34.266Z,8.40
2023-03-29T08:19:37.451Z,8.63
2023-03-29T08:24:40.340Z,8.76
2023-03-29T08:29:43.752Z,9.11
2023-03-29T08:34:47.099Z,9.17
2023-03-29T08:39:52.544Z,9.32
2023-03-29T08:45:01.591Z,9.10
2023-03-29T08:50:06.890Z,8.65
2023-03-29T08:55:42.426Z,8.50
2023-03-29T09:01:17.095Z,8.28
2023-03-29T09:06:35.739Z,8.52
2023-03-29T09:12:35.767Z,8.49
2023-03-29T09:18:34.977Z,8.66
2023-03-29T09:24:05.573Z,8.71
2023-03-29T09:30:10.699Z,8.68
2023-03-29T09:35:33.847Z,8.51
2023-03-29T09:40:46.744Z,8.39
2023-03-29T09:46:21.841Z,8.25
2023-03-29T09:51:33.013Z,8.24
2023-03-29T09:56:36.115Z,8.20
2023-03-29T10:01:51.732Z,8.08
2023-03-29T10:07:05.105Z,8.08
2023-03-29T10:12:17.711Z,8.15
2023-03-29T10:17:38.142Z,8.06
2023-03-29T10:22:50.087Z,8.07
2023-03-29T10:28:05.313Z,8.27
2023-03-29T10:33:46.487Z,8.37
2023-03-29T10:39:13.277Z,8.11
2023-03-29T10:44:36.465Z,8.00
2023-03-29T10:49:50.893Z,8.19
2023-03-29T10:55:00.061Z,8.39
2023-03-29T11:00:46.382Z,8.44
2023-03-29T11:06:26.254Z,8.23
2023-03-29T11:11:47.363Z,8.17
2023-03-29T11:17:41.799Z,8.07
2023-03-29T11:23:35.165Z,8.56
2023-03-29T11:28:53.613Z,8.67
2023-03-29T11:34:42.426Z,8.67
2023-03-29T11:40:31.732Z,8.92
2023-03-29T11:46:14.441Z,8.92
2023-03-29T11:51:26.867Z,8.95
2023-03-29T11:56:47.820Z,9.22
2023-03-29T12:02:07.773Z,9.11
2023-03-29T12:07:26.859Z,9.41
2023-03-29T12:13:00.217Z,9.49
2023-03-29T12:18:28.136Z,9.77
2023-03-29T12:23:33.275Z,9.66
2023-03-29T12:29:05.699Z,9.80
2023-03-29T12:35:05.696Z,9.78
2023-03-29T12:40:19.175Z,9.76
2023-03-29T12:45:48.525Z,9.89
2023-03-29T12:51:01.052Z,10.35
2023-03-29T12:56:04.522Z,10.29
2023-03-29T13:01:32.184Z,10.42
2023-03-29T13:07:17.089Z,10.36
2023-03-29T13:12:51.458Z,10.14
2023-03-29T13:18:29.202Z,10.36
2023-03-29T13:24:03.363Z,10.44
2023-03-29T13:29:18.942Z,10.52
2023-03-29T13:34:54.450Z,10.55
2023-03-29T13:39:58.141Z,10.60
2023-03-29T13:45:30.307Z,10.76
2023-03-29T13:50:55.856Z,10.87
2023-03-29T13:56:02.083Z,10.68
2023-03-29T14:01:32.865Z,10.49
2023-03-29T14:06:40.750Z,10.43
2023-03-29T14:11:47.548Z,10.42
2023-03-29T14:16:51.247Z,10.62
2023-03-29T14:21:54.758Z,10.67
2023-03-29T14:27:00.250Z,10.72
2023-03-29T14:32:13.055Z,10.94
2023-03-29T14:37:26.316Z,10.84
2023-03-29T14:42:32.163Z,10.35
2023-03-29T14:47:36.751Z,10.32
2023-03-29T14:52:44.995Z,10.56
2023-03-29T14:58:10.087Z,10.78
2023-03-29T15:03:16.875Z,10.88
2023-03-29T15:08:34.356Z,10.46
2023-03-29T15:13:42.483Z,9.90
2023-03-29T15:18:49.710Z,9.45
2023-03-29T15:23:59.520Z,9.25
2023-03-29T15:29:23.398Z,8.87
2023-03-29T15:34:35.356Z,8.65
2023-03-29T15:39:44.557Z,8.46
2023-03-29T15:44:53.305Z,8.35
2023-03-29T15:50:22.736Z,8.22
2023-03-29T15:55:32.770Z,8.13
2023-03-29T16:00:43.618Z,8.10
2023-03-29T16:05:49.559Z,7.99
2023-03-29T16:10:52.753Z,7.90
2023-03-29T16:16:06.466Z,7.78
2023-03-29T16:21:18.398Z,7.65
2023-03-29T16:26:24.455Z,7.53
2023-03-29T16:31:30.810Z,7.43
2023-03-29T16:36:35.151Z,7.35
2023-03-29T16:41:38.828Z,7.27
2023-03-29T16:46:57.620Z,7.19
2023-03-29T16:52:01.212Z,7.09
2023-03-29T16:57:04.605Z,7.01
2023-03-29T17:02:10.939Z,6.92
2023-03-29T17:07:14.194Z,6.83
2023-03-29T17:12:20.618Z,6.75
2023-03-29T17:17:24.031Z,6.67
2023-03-29T17:22:31.885Z,6.56
2023-03-29T17:27:38.878Z,6.50
2023-03-29T17:32:45.926Z,6.45
2023-03-29T17:37:49.681Z,6.38
2023-03-29T17:42:55.531Z,6.32
2023-03-29T17:48:04.708Z,6.27
2023-03-29T17:53:10.772Z,6.17
2023-03-29T17:58:24.322Z,6.11
2023-03-29T18:03:48.652Z,6.07
2023-03-29T18:08:53.395Z,6.05
2023-03-29T18:14:07.743Z,6.03
2023-03-29T18:19:14.010Z,5.98
2023-03-29T18:24:17.430Z,5.90
2023-03-29T18:29:21.152Z,5.87
2023-03-29T18:34:34.553Z,5.86
2023-03-29T18:40:08.435Z,5.85
2023-03-29T18:45:12.560Z,5.80
2023-03-29T18:50:19.055Z,5.75
2023-03-29T18:55:25.033Z,5.70
2023-03-29T19:00:28.337Z,5.66
2023-03-29T19:05:32.861Z,5.64
2023-03-29T19:10:38.829Z,5.64
2023-03-29T19:15:47.664Z,5.61
2023-03-29T19:20:54.482Z,5.63
2023-03-29T19:26:04.194Z,5.64
2023-03-29T19:31:07.529Z,5.63
2023-03-29T19:36:11.024Z,5.61
2023-03-29T19:41:14.418Z,5.60
2023-03-29T19:46:17.548Z,5.54
2023-03-29T19:51:26.826Z,5.52
2023-03-29T19:56:30.131Z,5.56
2023-03-29T20:01:34.175Z,5.61
2023-03-29T20:06:37.373Z,5.57
2023-03-29T20:11:40.680Z,5.51
2023-03-29T20:16:44.983Z,5.44
2023-03-29T20:21:57.873Z,5.30
2023-03-29T20:27:01.680Z,5.20
2023-03-29T20:32:04.806Z,5.08
2023-03-29T20:37:07.996Z,5.03
2023-03-29T20:42:11.373Z,5.01
2023-03-29T20:47:16.928Z,4.96
2023-03-29T20:52:23.615Z,4.80
2023-03-29T20:57:28.623Z,4.66
2023-03-29T21:02:33.784Z,4.50
2023-03-29T21:07:37.624Z,4.45
2023-03-29T21:12:43.597Z,4.48
2023-03-29T21:17:47.912Z,4.47
2023-03-29T21:22:51.717Z,4.43
2023-03-29T21:27:58.097Z,4.49
2023-03-29T21:33:01.297Z,4.69
2023-03-29T21:38:04.700Z,4.87
2023-03-29T21:43:07.814Z,5.02
2023-03-29T21:48:13.399Z,5.13
2023-03-29T21:53:24.762Z,5.25
2023-03-29T21:58:28.104Z,5.33
2023-03-29T22:03:31.629Z,5.27
2023-03-29T22:08:35.097Z,5.03
2023-03-29T22:13:38.702Z,4.86
2023-03-29T22:18:47.008Z,4.74
2023-03-29T22:23:54.120Z,4.71
2023-03-29T22:29:03.945Z,4.68
2023-03-29T22:34:12.818Z,4.65
2023-03-29T22:39:18.219Z,4.71
2023-03-29T22:44:24.133Z,4.92
2023-03-29T22:49:34.974Z,5.19
2023-03-29T22:54:38.459Z,5.44
2023-03-29T22:59:52.247Z,5.65
2023-03-29T23:04:58.072Z,5.77
2023-03-29T23:10:09.889Z,5.86
2023-03-29T23:15:32.441Z,5.90
2023-03-29T23:20:38.693Z,5.93
2023-03-29T23:25:51.831Z,5.95
2023-03-29T23:31:22.640Z,5.95
2023-03-29T23:36:28.188Z,5.92
2023-03-29T23:41:56.824Z,5.91
2023-03-29T23:47:09.489Z,5.91
2023-03-29T23:52:13.335Z,5.91
2023-03-29T23:57:26.929Z,5.88
